Terminal Aerodrome Forecast
Issued by NWS Blacksburg, VA

Home | Current Version | Previous Version | Text Only | Print | Product List | Glossary On
Versions: 1 2 3 4 5 6 7 8 9 10 11 12 13 14
000
FTUS41 KRNK 171728
TAFROA
TAF
KROA 171728Z 1718/1818 00000KT P6SM VCSH SCT050 OVC100
     FM180000 VRB03KT P6SM OVC050
     FM181100 VRB03KT P6SM SCT035=

USA.gov is the U.S. government's official web portal to all federal, state and local government web resources and services.